Time;durP1;ratioP1;P1;durP2;ratioP2;P2;SDS_P1;SDS_P2;PMS_P1;PMS_P2;Temp;Humidity;BMP_temperature;BMP_pressure;BME280_temperature;BME280_humidity;BME280_pressure;Samples;Min_cycle;Max_cycle;Signal;HPM_P1;HPM_P2
2023/03/01 00:01:21;;;;;;;29.88;19.42;;;;;;;6.44;67.18;102305.28;5057484;28;20401;-81
2023/03/01 00:03:47;;;;;;;30.02;19.33;;;;;;;6.39;67.28;102302.13;5063866;28;20431;-80
2023/03/01 00:06:13;;;;;;;28.83;19.27;;;;;;;6.45;67.21;102314.03;5064578;28;20394;-79
2023/03/01 00:08:39;;;;;;;25.80;17.55;;;;;;;5.99;68.41;102301.28;5059983;28;20420;-79
2023/03/01 00:11:06;;;;;;;28.45;18.55;;;;;;;6.12;68.13;102303.03;5060300;28;20393;-80
2023/03/01 00:13:31;;;;;;;28.55;18.33;;;;;;;6.31;67.71;102297.34;5059996;28;20405;-79
2023/03/01 00:15:57;;;;;;;28.63;18.95;;;;;;;6.47;67.21;102307.72;5066635;28;20387;-77
2023/03/01 00:18:23;;;;;;;30.65;19.13;;;;;;;6.43;67.10;102300.97;5072869;28;20437;-79
2023/03/01 00:20:52;;;;;;;28.60;18.02;;;;;;;6.28;67.95;102302.84;5071189;28;20383;-79
2023/03/01 00:23:18;;;;;;;28.77;18.73;;;;;;;6.38;67.53;102296.97;5052970;28;20446;-80
2023/03/01 00:25:44;;;;;;;28.60;18.95;;;;;;;6.41;67.41;102299.38;5058443;28;20416;-80
2023/03/01 00:28:09;;;;;;;31.13;19.70;;;;;;;6.47;67.58;102285.81;5054771;28;20423;-79
2023/03/01 00:30:35;;;;;;;26.10;18.10;;;;;;;6.17;67.58;102292.16;5070134;28;20388;-79
2023/03/01 00:33:00;;;;;;;27.03;18.17;;;;;;;6.15;67.89;102282.69;5056122;28;20387;-79
2023/03/01 00:35:26;;;;;;;27.25;17.40;;;;;;;6.15;67.97;102286.16;5066884;28;20387;-80
2023/03/01 00:37:57;;;;;;;30.53;18.60;;;;;;;6.28;67.98;102273.88;5062846;28;20385;-79
2023/03/01 00:40:23;;;;;;;26.63;18.55;;;;;;;6.28;67.76;102278.28;5065501;28;20707;-79
2023/03/01 00:42:50;;;;;;;30.03;18.00;;;;;;;6.25;67.91;102267.97;5064709;28;20420;-79
2023/03/01 00:45:15;;;;;;;26.65;17.83;;;;;;;6.36;67.47;102272.53;5058082;28;20394;-79
2023/03/01 00:47:41;;;;;;;31.02;19.50;;;;;;;6.35;67.64;102273.47;5069007;28;20420;-79
2023/03/01 00:50:07;;;;;;;28.77;19.10;;;;;;;6.39;67.28;102265.25;5065809;28;20406;-79
2023/03/01 00:52:32;;;;;;;30.63;19.27;;;;;;;6.33;67.31;102268.28;5059791;28;20396;-80
2023/03/01 00:54:58;;;;;;;27.03;19.40;;;;;;;6.28;67.71;102260.72;5060195;28;20449;-80
2023/03/01 00:57:23;;;;;;;29.40;20.60;;;;;;;6.32;67.56;102254.28;5055417;28;20384;-80
2023/03/01 00:59:49;;;;;;;29.27;20.33;;;;;;;6.41;67.11;102250.19;5062562;28;20418;-80
2023/03/01 01:02:14;;;;;;;27.67;19.10;;;;;;;6.44;67.02;102252.59;5058124;28;20392;-80
2023/03/01 01:04:40;;;;;;;28.43;19.10;;;;;;;6.32;67.44;102256.91;5070565;28;20798;-78
2023/03/01 01:07:06;;;;;;;25.47;18.67;;;;;;;6.37;67.74;102250.47;5073777;28;20436;-79
2023/03/01 01:09:31;;;;;;;26.63;18.50;;;;;;;6.28;67.51;102247.56;5068759;28;20761;-79
2023/03/01 01:11:57;;;;;;;27.38;18.83;;;;;;;6.24;67.38;102243.41;5062906;28;20399;-79
2023/03/01 01:14:22;;;;;;;29.20;18.93;;;;;;;6.30;67.73;102258.81;5054769;28;20396;-79
2023/03/01 01:16:48;;;;;;;25.87;18.47;;;;;;;6.40;67.15;102248.47;5070883;28;20383;-79
2023/03/01 01:19:14;;;;;;;26.50;18.50;;;;;;;6.35;67.28;102247.13;5057435;28;20482;-79
2023/03/01 01:21:42;;;;;;;26.70;18.70;;;;;;;6.37;66.98;102238.16;5060728;28;20392;-78
2023/03/01 01:24:08;;;;;;;26.42;18.45;;;;;;;6.48;67.17;102245.31;5056733;28;20752;-80
2023/03/01 01:26:34;;;;;;;25.52;18.27;;;;;;;6.49;66.64;102226.78;5070375;28;20379;-79
2023/03/01 01:29:04;;;;;;;25.48;17.48;;;;;;;6.48;67.26;102238.28;5072990;28;20413;-79
2023/03/01 01:31:31;;;;;;;27.00;17.35;;;;;;;6.42;67.27;102236.06;5060407;28;20384;-81
2023/03/01 01:33:59;;;;;;;26.00;17.77;;;;;;;6.34;67.28;102237.53;5066118;28;20877;-80
2023/03/01 01:36:25;;;;;;;26.85;17.73;;;;;;;6.46;67.01;102228.78;5064608;28;20410;-80
2023/03/01 01:38:50;;;;;;;24.25;17.35;;;;;;;6.50;67.18;102227.66;5064738;28;20732;-80
2023/03/01 01:41:17;;;;;;;25.13;17.65;;;;;;;6.51;67.24;102226.69;5069467;28;20416;-80
2023/03/01 01:44:10;;;;;;;26.40;16.73;;;;;;;6.66;66.77;102232.66;5063856;28;20390;-80
2023/03/01 01:46:47;;;;;;;25.23;17.77;;;;;;;6.59;66.48;102221.72;5067629;28;20717;-80
2023/03/01 01:49:18;;;;;;;24.17;16.92;;;;;;;6.58;66.65;102220.03;5057113;28;21156;-80
2023/03/01 01:51:48;;;;;;;22.73;16.10;;;;;;;6.53;66.61;102216.88;5062824;28;20383;-80
2023/03/01 01:54:24;;;;;;;24.08;17.15;;;;;;;6.53;66.74;102221.31;5063616;28;20389;-80
2023/03/01 01:56:57;;;;;;;24.30;16.15;;;;;;;6.57;66.80;102212.22;5072059;28;20756;-79
2023/03/01 01:59:24;;;;;;;21.63;15.93;;;;;;;6.48;66.86;102214.56;5057500;28;20387;-79
2023/03/01 02:01:54;;;;;;;23.85;16.17;;;;;;;6.47;66.66;102219.94;5065065;28;20843;-79
2023/03/01 02:04:20;;;;;;;20.23;14.48;;;;;;;6.32;67.58;102225.31;5073379;28;20391;-79
2023/03/01 02:06:56;;;;;;;21.13;15.77;;;;;;;6.41;67.27;102220.34;5071158;28;20399;-79
2023/03/01 02:09:23;;;;;;;19.98;14.98;;;;;;;6.29;67.53;102214.97;5060833;28;20501;-80
2023/03/01 02:11:51;;;;;;;22.13;14.77;;;;;;;6.29;67.37;102217.63;5067242;28;20388;-78
2023/03/01 02:14:17;;;;;;;19.98;15.10;;;;;;;6.26;67.45;102209.09;5066299;28;20847;-79
2023/03/01 02:16:43;;;;;;;20.80;14.63;;;;;;;6.24;67.77;102213.63;5073676;28;20387;-78
2023/03/01 02:19:15;;;;;;;19.42;14.30;;;;;;;6.22;67.67;102207.63;5060559;28;20415;-80
2023/03/01 02:22:06;;;;;;;25.85;15.23;;;;;;;6.35;67.81;102199.72;5066615;28;20733;-80
2023/03/01 02:25:05;;;;;;;21.77;14.70;;;;;;;6.29;67.23;102193.91;5069487;28;20879;-80
2023/03/01 02:28:13;;;;;;;23.55;14.88;;;;;;;6.28;67.27;102192.25;5053854;28;20755;-80
2023/03/01 02:31:41;;;;;;;18.92;14.48;;;;;;;6.16;68.14;102197.47;5044140;28;20398;-80
2023/03/01 02:33:26;;;;;;;19.30;13.55;;;;;;;6.14;68.16;102197.63;5064313;28;20379;-80
2023/03/01 02:35:54;;;;;;;19.25;13.52;;;;;;;6.25;67.84;102200.34;5074875;28;20383;-80
2023/03/01 02:38:20;;;;;;;20.35;13.63;;;;;;;6.32;67.80;102188.44;5064037;28;20430;-80
2023/03/01 02:40:48;;;;;;;19.77;14.02;;;;;;;6.30;67.07;102185.06;5055929;28;20475;-80
2023/03/01 02:43:15;;;;;;;19.92;14.23;;;;;;;6.37;67.39;102197.81;5056476;28;20384;-80
2023/03/01 02:45:49;;;;;;;18.38;13.52;;;;;;;6.46;67.14;102195.41;5061215;28;20510;-80
2023/03/01 02:48:14;;;;;;;19.07;14.50;;;;;;;6.45;67.29;102188.44;5071588;28;20920;-80
2023/03/01 02:51:11;;;;;;;21.93;14.53;;;;;;;6.56;66.99;102198.22;5072881;28;20383;-80
2023/03/01 02:54:04;;;;;;;19.45;14.52;;;;;;;6.63;66.90;102182.84;5058195;28;20524;-79
2023/03/01 02:56:30;;;;;;;21.33;14.03;;;;;;;6.59;66.85;102186.63;5067641;28;20871;-79
2023/03/01 02:59:00;;;;;;;20.43;13.70;;;;;;;6.45;66.74;102193.69;5065676;28;20419;-79
2023/03/01 03:01:36;;;;;;;21.33;13.93;;;;;;;6.41;67.37;102194.00;5057526;28;20387;-78
2023/03/01 03:04:10;;;;;;;21.05;13.98;;;;;;;6.37;67.52;102197.81;5074149;28;20407;-78
2023/03/01 03:06:36;;;;;;;21.53;14.23;;;;;;;6.31;67.37;102204.34;5067028;28;20387;-79
2023/03/01 03:09:03;;;;;;;18.98;13.02;;;;;;;6.18;68.01;102199.06;5068474;28;20469;-80
2023/03/01 03:11:29;;;;;;;20.88;13.85;;;;;;;6.25;68.02;102197.72;5058709;28;20588;-79
2023/03/01 03:13:54;;;;;;;19.48;13.90;;;;;;;6.31;67.82;102196.44;5059821;28;20403;-80
2023/03/01 03:16:20;;;;;;;19.88;13.85;;;;;;;6.36;67.52;102190.88;5067464;28;20379;-79
2023/03/01 03:18:46;;;;;;;19.33;13.77;;;;;;;6.36;67.64;102189.06;5058528;28;20385;-79
2023/03/01 03:21:12;;;;;;;20.70;13.30;;;;;;;6.31;67.24;102181.47;5055569;28;20483;-79
2023/03/01 03:23:38;;;;;;;22.13;15.20;;;;;;;6.30;67.78;102184.22;5060356;28;20810;-79
2023/03/01 03:26:05;;;;;;;19.33;14.10;;;;;;;6.37;67.52;102179.38;5064456;28;20400;-79
2023/03/01 03:28:32;;;;;;;18.77;13.50;;;;;;;6.45;67.24;102179.69;5067892;28;21110;-79
2023/03/01 03:30:58;;;;;;;20.35;14.38;;;;;;;6.40;67.22;102182.63;5072581;28;20439;-79
2023/03/01 03:33:24;;;;;;;18.17;13.02;;;;;;;6.36;67.88;102181.19;5069291;28;20389;-79
2023/03/01 03:35:50;;;;;;;18.50;13.10;;;;;;;6.35;67.45;102171.56;5059948;28;20384;-79
2023/03/01 03:38:19;;;;;;;18.38;13.00;;;;;;;6.36;67.49;102177.72;5065287;28;20383;-79
2023/03/01 03:41:02;;;;;;;18.95;12.90;;;;;;;6.26;67.63;102174.84;5062733;28;20400;-79
2023/03/01 03:43:28;;;;;;;19.40;13.15;;;;;;;6.32;67.79;102175.28;5059568;28;20487;-79
2023/03/01 03:45:54;;;;;;;20.77;13.60;;;;;;;6.27;67.98;102177.38;5064115;28;20422;-79
2023/03/01 03:48:19;;;;;;;23.27;14.43;;;;;;;6.39;67.87;102177.47;5071775;28;20402;-80
2023/03/01 03:50:55;;;;;;;19.50;13.90;;;;;;;6.39;67.73;102180.09;5067641;28;20396;-79
2023/03/01 03:53:23;;;;;;;19.97;14.03;;;;;;;6.45;67.40;102185.81;5057115;28;20465;-80
2023/03/01 03:55:49;;;;;;;19.08;12.70;;;;;;;6.43;67.25;102176.34;5069213;28;20453;-79
2023/03/01 03:58:16;;;;;;;17.85;11.95;;;;;;;6.37;67.67;102179.38;5071954;28;20401;-79
2023/03/01 04:00:44;;;;;;;19.95;12.52;;;;;;;6.31;67.77;102178.00;5059779;28;20423;-80
2023/03/01 04:03:11;;;;;;;17.60;12.52;;;;;;;6.27;67.69;102180.00;5069766;28;20387;-79
2023/03/01 04:05:39;;;;;;;19.17;12.87;;;;;;;6.25;67.78;102176.66;5071267;28;20899;-79
2023/03/01 04:08:07;;;;;;;18.92;12.73;;;;;;;6.25;67.72;102187.19;5071846;28;20407;-79
2023/03/01 04:10:45;;;;;;;18.98;12.95;;;;;;;6.34;67.71;102192.75;5071321;28;20440;-79
2023/03/01 04:13:13;;;;;;;17.63;12.60;;;;;;;6.20;67.79;102185.81;5054588;28;20723;-79
2023/03/01 04:15:40;;;;;;;17.85;12.23;;;;;;;6.27;67.89;102192.34;5067396;28;20388;-79
2023/03/01 04:18:06;;;;;;;16.95;12.30;;;;;;;6.27;68.04;102182.66;5062085;28;20863;-79
2023/03/01 04:20:34;;;;;;;18.40;12.65;;;;;;;6.13;68.26;102185.38;5072475;28;20456;-79
2023/03/01 04:23:15;;;;;;;19.92;12.70;;;;;;;6.22;67.96;102179.47;5055595;28;20377;-78
2023/03/01 04:25:45;;;;;;;19.02;12.57;;;;;;;6.25;67.83;102186.34;5053111;28;20442;-79
2023/03/01 04:28:11;;;;;;;19.83;13.20;;;;;;;6.34;67.92;102182.22;5053759;28;20888;-78
2023/03/01 04:30:38;;;;;;;18.63;13.27;;;;;;;6.11;68.34;102182.00;5060363;28;20416;-78
2023/03/01 04:33:05;;;;;;;19.02;12.68;;;;;;;6.15;68.31;102169.47;5055118;28;20865;-79
2023/03/01 04:35:31;;;;;;;15.73;12.33;;;;;;;6.07;68.17;102172.66;5054007;28;20438;-79
2023/03/01 04:37:57;;;;;;;19.92;12.98;;;;;;;6.16;68.52;102171.16;5060282;28;20413;-78
2023/03/01 04:40:23;;;;;;;17.40;12.32;;;;;;;6.14;68.36;102166.00;5070369;28;20743;-79
2023/03/01 04:42:49;;;;;;;19.75;13.48;;;;;;;6.28;68.20;102172.94;5074453;28;20371;-79
2023/03/01 04:45:14;;;;;;;19.98;13.48;;;;;;;6.22;68.05;102171.59;5056799;28;20756;-79
2023/03/01 04:47:42;;;;;;;21.10;14.02;;;;;;;6.23;68.33;102159.25;5066781;28;20388;-80
2023/03/01 04:50:09;;;;;;;21.92;13.60;;;;;;;6.26;68.04;102167.78;5059943;28;20452;-79
2023/03/01 04:52:35;;;;;;;18.63;13.15;;;;;;;6.22;68.20;102173.38;5066437;28;20380;-79
2023/03/01 04:55:01;;;;;;;19.42;13.55;;;;;;;6.17;68.35;102173.69;5054125;28;20403;-79
2023/03/01 04:57:26;;;;;;;20.80;13.45;;;;;;;6.23;68.12;102169.78;5057881;28;20392;-80
2023/03/01 04:59:52;;;;;;;19.73;13.70;;;;;;;6.19;68.31;102165.69;5062286;28;20382;-79
2023/03/01 05:02:17;;;;;;;19.97;13.63;;;;;;;6.17;68.41;102163.16;5064350;28;20470;-80
2023/03/01 05:04:43;;;;;;;20.27;13.80;;;;;;;6.27;67.98;102177.38;5059776;28;20390;-80
2023/03/01 05:07:08;;;;;;;20.00;13.48;;;;;;;6.20;67.83;102170.84;5075873;28;20387;-80
2023/03/01 05:09:34;;;;;;;21.65;14.48;;;;;;;6.13;67.97;102178.31;5072590;28;20416;-79
2023/03/01 05:11:59;;;;;;;21.60;15.40;;;;;;;6.05;68.91;102177.16;5066435;28;20384;-79
2023/03/01 05:14:25;;;;;;;20.87;14.27;;;;;;;6.22;68.45;102173.38;5068862;28;20381;-80
2023/03/01 05:16:50;;;;;;;21.33;14.23;;;;;;;6.26;67.92;102182.75;5068977;28;20391;-80
2023/03/01 05:19:16;;;;;;;19.90;14.93;;;;;;;6.26;67.86;102183.59;5060698;28;20446;-80
2023/03/01 05:24:28;;;;;;;20.17;14.52;;;;;;;6.23;68.08;102196.13;5067554;28;20451;-79
2023/03/01 05:26:53;;;;;;;22.05;15.55;;;;;;;6.20;68.23;102194.53;5071994;28;20414;-80
2023/03/01 05:29:24;;;;;;;24.73;16.23;;;;;;;6.38;67.75;102187.19;5069880;28;20434;-81
2023/03/01 05:32:00;;;;;;;25.30;16.77;;;;;;;6.30;67.98;102182.44;5073632;28;20507;-81
2023/03/01 05:34:32;;;;;;;22.63;15.48;;;;;;;6.29;67.68;102185.19;5073410;28;20379;-79
2023/03/01 05:36:58;;;;;;;23.08;16.13;;;;;;;6.34;67.88;102190.97;5067867;28;20444;-80
2023/03/01 05:39:26;;;;;;;17.90;13.20;;;;;;;6.21;67.59;102183.09;5069020;28;20719;-81
2023/03/01 05:41:53;;;;;;;23.17;15.15;;;;;;;6.30;68.09;102190.34;5071566;28;20393;-79
2023/03/01 05:44:20;;;;;;;19.10;13.90;;;;;;;6.29;68.11;102193.91;5065142;28;20383;-80
2023/03/01 05:46:45;;;;;;;20.00;13.82;;;;;;;6.24;67.97;102182.00;5062632;28;20404;-80
2023/03/01 05:49:13;;;;;;;24.45;15.60;;;;;;;6.30;67.93;102185.06;5062274;28;20415;-80
2023/03/01 05:51:39;;;;;;;23.80;15.00;;;;;;;6.27;68.06;102185.28;5064292;28;20379;-80
2023/03/01 05:54:05;;;;;;;20.20;14.18;;;;;;;6.31;67.82;102180.66;5066284;28;20450;-79
2023/03/01 05:56:35;;;;;;;20.17;14.60;;;;;;;6.34;67.64;102172.53;5073853;28;20712;-80
2023/03/01 05:59:01;;;;;;;21.25;13.95;;;;;;;6.22;68.11;102173.38;5073967;28;20383;-78
2023/03/01 06:01:27;;;;;;;24.75;14.82;;;;;;;6.33;67.88;102178.75;5070315;28;20448;-78
2023/03/01 06:03:53;;;;;;;20.85;14.52;;;;;;;6.26;68.04;102170.41;5069175;28;20381;-79
2023/03/01 06:06:18;;;;;;;21.02;13.25;;;;;;;6.18;68.23;102174.53;5066408;28;20379;-80
2023/03/01 06:08:44;;;;;;;20.37;13.37;;;;;;;6.12;68.58;102179.28;5073656;28;20402;-78
2023/03/01 06:11:09;;;;;;;21.50;13.60;;;;;;;6.23;67.89;102175.03;5073936;28;20396;-78
2023/03/01 06:13:35;;;;;;;21.50;12.77;;;;;;;6.10;67.91;102181.19;5073836;28;20475;-77
2023/03/01 06:16:05;;;;;;;21.52;13.82;;;;;;;6.17;68.30;102183.38;5073365;28;20426;-79
2023/03/01 06:18:31;;;;;;;19.13;12.45;;;;;;;6.19;68.14;102187.59;5075230;28;20363;-79
2023/03/01 06:20:56;;;;;;;18.83;13.30;;;;;;;6.23;68.39;102182.94;5073124;28;20390;-79
2023/03/01 06:23:23;;;;;;;18.23;12.77;;;;;;;6.23;67.97;102182.94;5072812;28;20395;-79
2023/03/01 06:25:48;;;;;;;20.30;13.27;;;;;;;6.32;67.56;102198.16;5071114;28;20726;-80
2023/03/01 06:28:14;;;;;;;18.13;12.10;;;;;;;6.16;68.07;102197.47;5068911;28;20871;-78
2023/03/01 06:30:40;;;;;;;18.77;12.50;;;;;;;6.24;67.92;102195.19;5073201;28;20379;-78
2023/03/01 06:33:05;;;;;;;20.27;13.18;;;;;;;6.14;67.95;102189.72;5071878;28;20916;-78
2023/03/01 06:35:30;;;;;;;18.00;12.95;;;;;;;6.32;67.83;102193.72;5073528;28;20854;-79
2023/03/01 06:37:57;;;;;;;21.30;13.63;;;;;;;6.40;67.94;102197.59;5073062;28;20367;-79
2023/03/01 06:40:23;;;;;;;18.93;11.93;;;;;;;6.27;67.85;102200.25;5074959;28;20415;-79
2023/03/01 06:42:50;;;;;;;17.17;12.20;;;;;;;6.21;67.66;102196.25;5074541;28;20390;-81
2023/03/01 06:45:17;;;;;;;17.35;12.55;;;;;;;6.15;68.24;102206.34;5075146;28;20911;-78
2023/03/01 06:47:42;;;;;;;18.65;12.68;;;;;;;6.16;68.25;102208.00;5067699;28;20420;-80
2023/03/01 06:50:08;;;;;;;18.90;12.60;;;;;;;6.11;68.21;102208.34;5063184;28;20458;-79
2023/03/01 06:52:34;;;;;;;21.35;14.93;;;;;;;6.13;68.23;102206.44;5072763;28;20394;-79
2023/03/01 06:55:00;;;;;;;21.17;14.33;;;;;;;5.99;68.22;102210.00;5067403;28;20384;-79
2023/03/01 06:57:26;;;;;;;19.70;13.10;;;;;;;5.94;68.79;102209.44;5066240;28;20375;-79
2023/03/01 06:59:51;;;;;;;21.13;13.67;;;;;;;5.97;68.51;102214.53;5073341;28;20390;-80
2023/03/01 07:02:17;;;;;;;22.77;14.57;;;;;;;6.03;68.11;102206.22;5068766;28;20412;-82
2023/03/01 07:04:43;;;;;;;20.25;13.88;;;;;;;6.24;68.11;102222.34;5064914;28;20430;-77
2023/03/01 07:07:09;;;;;;;23.63;14.95;;;;;;;6.28;67.61;102215.94;5073039;28;20371;-78
2023/03/01 07:09:34;;;;;;;19.30;13.90;;;;;;;6.21;68.12;102205.91;5073911;28;20787;-79
2023/03/01 07:12:00;;;;;;;19.23;13.67;;;;;;;6.16;67.43;102206.25;5073550;28;20375;-78
2023/03/01 07:14:25;;;;;;;22.60;14.07;;;;;;;6.32;67.79;102214.78;5072917;28;20375;-80
2023/03/01 07:16:54;;;;;;;22.27;14.07;;;;;;;6.25;68.01;102210.03;5073968;28;20421;-78
2023/03/01 07:19:21;;;;;;;21.48;14.23;;;;;;;6.29;67.81;102208.88;5073051;28;20851;-78
2023/03/01 07:21:47;;;;;;;22.20;13.43;;;;;;;6.40;67.80;102205.50;5072980;28;20462;-77
2023/03/01 07:24:12;;;;;;;20.23;13.43;;;;;;;6.45;67.70;102209.50;5088094;28;20458;-77
2023/03/01 07:26:38;;;;;;;19.93;13.67;;;;;;;6.39;67.44;102212.56;5072361;28;20398;-77
2023/03/01 07:29:05;;;;;;;19.10;12.32;;;;;;;6.21;68.25;102212.03;5071104;28;20814;-77
2023/03/01 07:31:31;;;;;;;19.52;13.35;;;;;;;6.17;68.50;102210.53;5071794;28;20452;-77
2023/03/01 07:33:57;;;;;;;23.88;14.20;;;;;;;6.24;68.42;102206.53;5070567;28;20796;-77
2023/03/01 07:36:23;;;;;;;19.17;13.52;;;;;;;6.26;68.18;102191.47;5068889;28;20468;-78
2023/03/01 07:38:48;;;;;;;18.63;13.13;;;;;;;6.23;67.79;102206.66;5071994;28;20386;-79
2023/03/01 07:41:14;;;;;;;19.95;12.63;;;;;;;6.35;67.92;102189.19;5072123;28;20454;-78
2023/03/01 07:43:40;;;;;;;21.40;13.47;;;;;;;6.43;67.40;102202.66;5071123;28;20851;-77
2023/03/01 07:46:06;;;;;;;19.17;12.60;;;;;;;6.32;67.72;102191.06;5072734;28;20411;-79
2023/03/01 07:48:32;;;;;;;19.17;12.18;;;;;;;6.22;68.12;102195.28;5072008;28;20445;-77
2023/03/01 07:51:00;;;;;;;23.92;12.95;;;;;;;6.32;67.74;102201.63;5072459;28;20387;-79
2023/03/01 07:53:26;;;;;;;21.08;13.75;;;;;;;6.35;67.69;102213.72;5059384;28;20404;-78
2023/03/01 07:56:02;;;;;;;21.67;13.60;;;;;;;6.37;67.87;102200.44;5071656;28;20407;-78
2023/03/01 07:58:27;;;;;;;24.40;15.10;;;;;;;6.60;67.30;102206.75;5070997;28;20379;-78
2023/03/01 08:00:53;;;;;;;19.87;14.07;;;;;;;6.63;66.85;102198.66;5071243;28;20743;-79
2023/03/01 08:03:18;;;;;;;20.63;13.87;;;;;;;6.58;66.60;102211.28;5072371;28;20680;-78
2023/03/01 08:05:43;;;;;;;20.27;13.93;;;;;;;6.36;67.33;102211.94;5072157;28;20379;-77
2023/03/01 08:08:09;;;;;;;19.97;13.23;;;;;;;6.24;67.68;102206.53;5068612;28;20400;-78
2023/03/01 08:10:36;;;;;;;20.47;14.00;;;;;;;6.34;67.51;102193.59;5072573;28;20379;-79
2023/03/01 08:13:02;;;;;;;18.97;13.33;;;;;;;6.46;67.35;102205.06;5074224;28;20768;-79
2023/03/01 08:15:27;;;;;;;20.43;13.47;;;;;;;6.19;67.35;102199.91;5067974;28;20880;-79
2023/03/01 08:17:53;;;;;;;22.40;14.60;;;;;;;6.12;67.99;102205.59;5065446;28;20371;-78
2023/03/01 08:20:18;;;;;;;18.10;13.30;;;;;;;6.18;67.77;102206.16;5069180;28;20402;-76
2023/03/01 08:22:44;;;;;;;19.40;14.00;;;;;;;6.27;67.97;102208.97;5071007;28;20941;-77
2023/03/01 08:25:09;;;;;;;25.63;14.60;;;;;;;6.31;67.82;102193.81;5070348;28;20382;-77
2023/03/01 08:27:35;;;;;;;21.80;13.47;;;;;;;6.27;67.74;102200.25;5070781;28;20459;-78
2023/03/01 08:30:00;;;;;;;21.35;14.10;;;;;;;6.22;67.63;102184.75;5070127;28;20375;-79
2023/03/01 08:32:26;;;;;;;20.87;14.40;;;;;;;6.44;67.55;102191.16;5071839;28;20395;-78
2023/03/01 08:34:51;;;;;;;23.13;15.13;;;;;;;6.43;67.15;102185.06;5066843;28;20507;-78
2023/03/01 08:37:17;;;;;;;20.48;13.80;;;;;;;6.57;66.80;102194.66;5070537;28;20854;-77
2023/03/01 08:39:42;;;;;;;19.67;12.77;;;;;;;6.46;67.12;102197.16;5070240;28;20479;-77
2023/03/01 08:42:07;;;;;;;21.10;14.10;;;;;;;6.53;67.01;102192.31;5069951;28;20379;-77
2023/03/01 08:44:34;;;;;;;19.15;11.98;;;;;;;6.51;68.42;102188.00;5061591;28;20413;-78
2023/03/01 08:47:02;;;;;;;30.60;15.40;;;;;;;7.09;69.74;102203.25;5057246;28;20416;-77
2023/03/01 08:49:27;;;;;;;20.83;13.85;;;;;;;7.35;69.45;102192.63;5056863;28;20406;-78
2023/03/01 08:51:54;;;;;;;19.67;13.13;;;;;;;7.16;66.64;102188.69;5069820;28;20720;-79
2023/03/01 08:54:21;;;;;;;18.30;12.48;;;;;;;6.98;66.52;102190.03;5069501;28;20386;-77
2023/03/01 08:56:47;;;;;;;18.20;13.00;;;;;;;6.83;66.75;102181.41;5059980;28;20728;-77
2023/03/01 08:59:14;;;;;;;18.70;12.13;;;;;;;6.77;66.69;102190.63;5051264;28;20419;-78
2023/03/01 09:01:43;;;;;;;17.83;12.57;;;;;;;6.73;65.90;102180.38;5051138;28;20377;-78
2023/03/01 09:04:09;;;;;;;21.60;14.57;;;;;;;6.68;66.57;102178.06;5050194;28;20446;-77
2023/03/01 09:06:35;;;;;;;24.92;14.95;;;;;;;6.66;66.33;102175.56;5048741;28;20381;-77
2023/03/01 09:09:01;;;;;;;39.77;21.10;;;;;;;6.50;66.96;102180.22;5048466;28;20478;-77
2023/03/01 09:11:28;;;;;;;51.13;24.55;;;;;;;6.51;66.89;102174.81;5049626;28;20753;-77
2023/03/01 09:13:54;;;;;;;74.22;32.50;;;;;;;6.63;66.92;102181.03;5049612;28;20377;-77
2023/03/01 09:16:20;;;;;;;36.28;19.73;;;;;;;6.68;66.68;102189.47;5050327;28;20381;-76
2023/03/01 09:18:50;;;;;;;23.52;15.23;;;;;;;6.63;66.63;102186.31;5051152;28;20467;-78
2023/03/01 09:21:17;;;;;;;19.65;13.63;;;;;;;6.64;66.77;102187.97;5050182;28;20405;-79
2023/03/01 09:23:45;;;;;;;19.02;13.05;;;;;;;6.48;66.79;102179.47;5050442;28;20379;-77
2023/03/01 09:26:19;;;;;;;19.52;13.00;;;;;;;6.62;66.70;102178.50;5051626;28;20734;-77
2023/03/01 09:28:44;;;;;;;20.55;14.30;;;;;;;6.73;66.56;102177.75;5050499;28;20416;-78
2023/03/01 09:31:12;;;;;;;26.05;17.05;;;;;;;6.72;66.74;102183.94;5050568;28;20383;-77
2023/03/01 09:33:39;;;;;;;23.38;15.52;;;;;;;6.69;66.80;102182.38;5050235;28;20913;-77
2023/03/01 09:36:08;;;;;;;20.30;14.50;;;;;;;6.69;66.37;102182.38;5050326;28;20880;-79
2023/03/01 09:38:34;;;;;;;24.52;15.07;;;;;;;6.63;66.26;102175.75;5050224;28;20376;-77
2023/03/01 09:41:09;;;;;;;24.15;15.15;;;;;;;6.58;66.70;102167.34;5051330;28;20738;-77
2023/03/01 09:43:57;;;;;;;19.98;13.25;;;;;;;6.69;66.48;102169.22;5053876;28;20875;-77
2023/03/01 09:46:25;;;;;;;19.42;13.68;;;;;;;6.85;66.36;102156.63;5054064;28;20900;-79
2023/03/01 09:48:56;;;;;;;21.55;12.77;;;;;;;6.71;66.68;102172.59;5054155;28;20408;-76
2023/03/01 09:51:34;;;;;;;19.85;12.63;;;;;;;6.64;66.82;102166.06;5053365;28;20427;-79
2023/03/01 09:54:02;;;;;;;24.10;14.80;;;;;;;6.82;66.61;102164.75;5054167;28;21068;-78
2023/03/01 09:56:41;;;;;;;19.65;12.93;;;;;;;7.00;66.10;102177.56;5053897;28;20473;-78
2023/03/01 09:59:21;;;;;;;18.67;13.18;;;;;;;7.14;66.07;102173.94;5054005;28;20910;-78
2023/03/01 10:02:18;;;;;;;19.02;12.85;;;;;;;6.99;66.07;102162.72;5054129;28;20407;-79
2023/03/01 10:04:55;;;;;;;19.20;13.40;;;;;;;7.03;66.22;102175.56;5053356;28;20435;-78
2023/03/01 10:07:23;;;;;;;19.30;12.95;;;;;;;6.93;65.94;102176.31;5054842;28;20372;-79
2023/03/01 10:09:49;;;;;;;21.83;13.00;;;;;;;6.94;66.20;102184.13;5053295;28;20757;-78
2023/03/01 10:12:20;;;;;;;21.92;13.60;;;;;;;7.01;66.30;102172.19;5052548;28;20926;-78
2023/03/01 10:14:58;;;;;;;20.15;13.45;;;;;;;6.99;66.22;102174.09;5053393;28;20841;-77
2023/03/01 10:18:07;;;;;;;18.48;13.50;;;;;;;6.97;66.43;102164.59;5053399;28;20464;-79
2023/03/01 10:20:51;;;;;;;21.08;14.38;;;;;;;6.89;66.53;102154.63;5032014;28;20390;-78
2023/03/01 10:23:16;;;;;;;25.05;16.23;;;;;;;7.00;66.38;102156.47;5051755;28;20377;-77
2023/03/01 10:26:14;;;;;;;20.67;14.77;;;;;;;6.93;66.36;102163.97;5053291;28;20449;-78
2023/03/01 10:29:07;;;;;;;26.63;18.02;;;;;;;7.16;66.15;102154.41;5053960;28;20413;-78
2023/03/01 10:31:44;;;;;;;17.75;13.05;;;;;;;7.08;65.93;102156.78;5054331;28;20388;-78
2023/03/01 10:34:27;;;;;;;19.90;13.43;;;;;;;6.87;66.35;102149.44;5054045;28;20431;-77
2023/03/01 10:36:56;;;;;;;21.63;13.98;;;;;;;6.98;66.48;102139.94;5052476;28;20388;-78
2023/03/01 10:39:24;;;;;;;21.13;14.30;;;;;;;6.98;66.47;102139.94;5052677;28;20365;-78
2023/03/01 10:42:02;;;;;;;21.13;14.35;;;;;;;7.06;66.49;102138.41;5052552;28;20364;-77
2023/03/01 10:44:38;;;;;;;22.20;15.38;;;;;;;7.15;66.24;102134.28;5051854;28;20380;-78
2023/03/01 10:47:04;;;;;;;20.92;14.82;;;;;;;7.34;66.18;102125.00;5053433;28;20416;-79
2023/03/01 10:49:31;;;;;;;19.90;14.23;;;;;;;7.44;66.01;102121.56;5053282;28;20404;-79
2023/03/01 10:52:17;;;;;;;22.60;15.50;;;;;;;7.34;65.78;102115.28;5052616;28;20854;-77
2023/03/01 10:54:59;;;;;;;23.60;15.50;;;;;;;7.29;66.21;102117.41;5052631;28;20853;-77
2023/03/01 10:57:36;;;;;;;18.67;13.63;;;;;;;7.16;66.20;102109.56;5052529;28;20385;-78
2023/03/01 11:00:18;;;;;;;21.58;14.60;;;;;;;7.18;66.30;102110.28;5053245;28;20376;-78
2023/03/01 11:02:48;;;;;;;18.60;13.02;;;;;;;7.06;66.61;102101.50;5052375;28;20385;-79
2023/03/01 11:05:14;;;;;;;22.35;14.75;;;;;;;7.27;66.07;102108.78;5057152;28;20393;-77
2023/03/01 11:07:47;;;;;;;22.88;15.20;;;;;;;7.23;65.90;102110.81;5066003;28;20390;-79
2023/03/01 11:10:17;;;;;;;20.35;14.45;;;;;;;7.27;66.17;102104.38;5069942;28;20755;-78
2023/03/01 11:12:43;;;;;;;22.38;14.25;;;;;;;7.33;65.73;102100.44;5059072;28;20390;-78
2023/03/01 11:15:24;;;;;;;25.23;14.70;;;;;;;7.27;65.83;102098.22;5066795;28;20712;-78
2023/03/01 11:17:50;;;;;;;19.17;13.57;;;;;;;7.25;65.40;102095.69;5069123;28;20383;-77
2023/03/01 11:20:20;;;;;;;20.08;13.40;;;;;;;7.20;65.58;102089.09;5092555;28;20472;-79
2023/03/01 11:23:01;;;;;;;21.65;14.40;;;;;;;7.25;65.66;102089.59;5072490;28;20375;-77
2023/03/01 11:25:33;;;;;;;20.30;13.97;;;;;;;7.32;65.19;102087.34;5072782;28;20383;-78
2023/03/01 11:28:01;;;;;;;18.88;13.77;;;;;;;7.32;65.13;102087.34;5072990;28;20448;-75